Time;durP1;ratioP1;P1;durP2;ratioP2;P2;SDS_P1;SDS_P2;PMS_P1;PMS_P2;Temp;Humidity;BMP_temperature;BMP_pressure;BME280_temperature;BME280_humidity;BME280_pressure;Samples;Min_cycle;Max_cycle;Signal;HPM_P1;HPM_P2
2022/04/17 00:00:13;;;;;;;2.20;2.10;;;2.00;66.60;;;;;;5028932;28;20923;-51
2022/04/17 00:02:40;;;;;;;2.93;2.67;;;2.00;72.40;;;;;;5029050;28;20487;-51
2022/04/17 00:05:07;;;;;;;2.53;2.33;;;2.00;72.40;;;;;;5027911;28;20458;-51
2022/04/17 00:07:36;;;;;;;2.87;2.77;;;2.10;74.40;;;;;;5032956;28;20487;-51
2022/04/17 00:10:04;;;;;;;3.00;2.80;;;2.10;69.70;;;;;;5038359;28;20863;-52
2022/04/17 00:12:30;;;;;;;2.50;2.17;;;2.00;77.80;;;;;;5030903;28;20993;-53
2022/04/17 00:14:57;;;;;;;2.50;2.30;;;2.00;74.30;;;;;;5030253;28;20463;-52
2022/04/17 00:17:24;;;;;;;3.17;2.70;;;2.00;71.70;;;;;;5035625;28;20516;-52
2022/04/17 00:19:51;;;;;;;3.30;3.00;;;2.00;64.60;;;;;;5033652;28;20522;-50
2022/04/17 00:22:17;;;;;;;2.90;2.70;;;2.00;62.90;;;;;;5030522;28;20832;-48
2022/04/17 00:24:45;;;;;;;3.10;2.87;;;2.00;65.40;;;;;;5029808;28;20519;-50
2022/04/17 00:27:12;;;;;;;2.90;2.70;;;2.00;68.90;;;;;;5027753;28;20552;-49
2022/04/17 00:29:38;;;;;;;2.67;2.50;;;2.00;70.60;;;;;;5024940;28;20483;-49
2022/04/17 00:32:06;;;;;;;3.80;2.80;;;2.00;68.20;;;;;;5032383;28;20876;-48
2022/04/17 00:34:32;;;;;;;3.00;2.80;;;2.00;73.60;;;;;;5031682;28;20466;-49
2022/04/17 00:37:00;;;;;;;3.37;3.17;;;2.00;67.90;;;;;;5023212;28;20467;-51
2022/04/17 00:39:27;;;;;;;4.80;2.77;;;2.00;68.00;;;;;;5024279;28;20566;-51
2022/04/17 00:41:55;;;;;;;6.00;3.00;;;1.90;67.30;;;;;;5030899;28;20467;-52
2022/04/17 00:44:22;;;;;;;3.07;2.87;;;1.90;64.30;;;;;;5029836;28;20490;-51
2022/04/17 00:46:49;;;;;;;3.30;3.03;;;1.80;64.80;;;;;;5025183;28;21015;-51
2022/04/17 00:49:16;;;;;;;3.07;2.87;;;1.80;65.80;;;;;;5029397;28;20514;-51
2022/04/17 00:51:44;;;;;;;2.87;2.67;;;1.80;57.90;;;;;;5023463;28;20503;-52
2022/04/17 00:54:14;;;;;;;3.03;2.73;;;1.80;44.00;;;;;;5031069;28;20485;-52
2022/04/17 00:56:42;;;;;;;2.57;2.47;;;1.70;47.50;;;;;;5024748;28;20463;-52
2022/04/17 00:59:10;;;;;;;2.77;2.67;;;1.60;52.30;;;;;;5030115;28;20916;-52
2022/04/17 01:01:37;;;;;;;3.33;3.03;;;1.50;54.80;;;;;;5024652;28;20505;-52
2022/04/17 01:04:05;;;;;;;2.97;2.77;;;1.50;49.60;;;;;;5030402;28;20853;-51
2022/04/17 01:06:32;;;;;;;2.40;2.30;;;1.50;46.50;;;;;;5022602;28;20494;-53
2022/04/17 01:09:00;;;;;;;4.40;2.90;;;1.60;47.20;;;;;;5027684;28;20570;-50
2022/04/17 01:11:26;;;;;;;3.53;2.63;;;1.50;47.80;;;;;;5031343;28;20458;-51
2022/04/17 01:13:54;;;;;;;3.30;3.03;;;1.40;45.60;;;;;;5030236;28;21571;-52
2022/04/17 01:16:23;;;;;;;2.73;2.53;;;1.40;42.10;;;;;;5027016;28;20509;-52
2022/04/17 01:18:54;;;;;;;2.97;2.73;;;1.40;35.10;;;;;;5029008;28;20490;-52
2022/04/17 01:21:22;;;;;;;4.10;2.70;;;1.40;37.00;;;;;;5029451;28;20463;-51
2022/04/17 01:29:18;;;;;;;2.70;2.60;;;1.20;34.30;;;;;;5025098;28;20474;-49
2022/04/17 01:31:45;;;;;;;2.87;2.67;;;1.20;37.00;;;;;;5030375;28;20463;-49
2022/04/17 01:34:14;;;;;;;2.97;2.77;;;1.10;37.00;;;;;;5029295;28;20510;-49
2022/04/17 01:36:43;;;;;;;3.17;2.93;;;1.10;29.80;;;;;;5027978;28;20459;-49
2022/04/17 01:39:09;;;;;;;2.80;2.60;;;1.10;31.90;;;;;;5025318;28;20526;-50
2022/04/17 01:41:36;;;;;;;2.80;2.60;;;1.20;29.90;;;;;;5020154;28;20513;-49
2022/04/17 01:44:03;;;;;;;2.53;2.43;;;1.20;32.00;;;;;;5016761;28;20545;-49
2022/04/17 01:46:30;;;;;;;2.90;2.77;;;1.10;29.50;;;;;;5015032;28;20463;-49
2022/04/17 01:48:56;;;;;;;3.20;3.00;;;1.10;32.70;;;;;;5018020;28;20478;-49
2022/04/17 01:51:23;;;;;;;3.13;2.80;;;1.10;32.70;;;;;;5018075;28;20483;-49
2022/04/17 01:53:51;;;;;;;3.70;2.53;;;1.10;35.10;;;;;;5019549;28;20594;-49
2022/04/17 01:56:17;;;;;;;3.43;3.13;;;1.10;32.70;;;;;;5017599;28;20491;-49
2022/04/17 01:58:44;;;;;;;2.73;2.60;;;1.00;31.80;;;;;;5026141;28;20943;-49
2022/04/17 02:01:11;;;;;;;2.47;2.30;;;1.00;23.60;;;;;;5024247;28;20493;-49
2022/04/17 02:03:37;;;;;;;5.90;3.23;;;1.00;77.70;;;;;;5019089;28;20490;-49
2022/04/17 02:06:04;;;;;;;2.47;2.37;;;0.90;20.50;;;;;;5020167;28;20498;-49
2022/04/17 02:08:31;;;;;;;2.77;2.67;;;0.90;20.40;;;;;;5021348;28;20578;-49
2022/04/17 02:10:58;;;;;;;3.43;3.20;;;0.90;99.90;;;;;;5016021;28;20463;-50
2022/04/17 02:13:27;;;;;;;2.80;2.60;;;0.90;99.90;;;;;;5017716;28;20855;-49
2022/04/17 02:15:54;;;;;;;2.93;2.80;;;1.00;99.90;;;;;;5017586;28;20459;-49
2022/04/17 02:18:21;;;;;;;2.67;2.57;;;1.00;99.90;;;;;;5016237;28;20490;-50
2022/04/17 02:20:48;;;;;;;2.97;2.80;;;0.90;99.90;;;;;;5021852;28;21275;-50
2022/04/17 02:23:15;;;;;;;4.00;2.73;;;0.90;99.90;;;;;;5020590;28;20896;-49
2022/04/17 02:25:42;;;;;;;2.73;2.57;;;0.80;99.90;;;;;;5020339;28;20546;-49
2022/04/17 02:28:10;;;;;;;2.57;2.47;;;0.80;99.90;;;;;;5019197;28;20923;-49
2022/04/17 02:30:37;;;;;;;2.90;2.70;;;0.80;99.90;;;;;;5018235;28;20505;-49
2022/04/17 02:33:04;;;;;;;2.90;2.80;;;0.70;99.90;;;;;;5020470;28;20566;-49
2022/04/17 02:35:30;;;;;;;3.10;2.90;;;0.60;99.90;;;;;;5021173;28;20484;-57
2022/04/17 02:37:57;;;;;;;3.30;2.93;;;0.60;99.90;;;;;;5018801;28;20565;-49
2022/04/17 02:40:23;;;;;;;2.57;2.47;;;0.50;99.90;;;;;;5017173;28;20496;-49
2022/04/17 02:42:53;;;;;;;3.33;3.20;;;0.60;99.90;;;;;;5014899;28;20952;-50
2022/04/17 02:45:21;;;;;;;3.33;3.13;;;0.60;99.90;;;;;;5022285;28;20465;-50
2022/04/17 02:47:50;;;;;;;3.67;3.43;;;0.60;99.90;;;;;;5021283;28;20497;-49
2022/04/17 02:50:18;;;;;;;4.20;3.80;;;0.50;99.90;;;;;;5019860;28;20565;-50
2022/04/17 02:52:46;;;;;;;4.20;3.90;;;0.50;99.90;;;;;;5028490;28;20459;-50
2022/04/17 02:55:13;;;;;;;4.40;4.03;;;0.40;99.90;;;;;;5026810;28;20470;-49
2022/04/17 02:57:40;;;;;;;4.50;4.10;;;0.50;99.90;;;;;;5017406;28;20558;-50
2022/04/17 03:00:08;;;;;;;4.90;4.50;;;0.40;99.90;;;;;;5020554;28;20517;-50
2022/04/17 03:05:40;;;;;;;4.37;3.90;;;0.30;99.90;;;;;;5022931;28;20459;-49
2022/04/17 03:08:08;;;;;;;4.47;4.10;;;0.30;99.90;;;;;;5020746;28;20568;-49
2022/04/17 03:10:36;;;;;;;14.97;10.00;;;0.30;99.90;;;;;;5018144;28;20902;-49
2022/04/17 03:13:04;;;;;;;24.77;14.83;;;0.30;99.90;;;;;;5020074;28;20467;-50
2022/04/17 03:15:31;;;;;;;32.27;21.10;;;0.30;99.90;;;;;;5023441;28;20493;-50
2022/04/17 03:17:59;;;;;;;31.80;19.47;;;0.20;99.90;;;;;;5022144;28;20487;-49
2022/04/17 03:20:27;;;;;;;30.23;17.90;;;0.20;99.90;;;;;;5022703;28;20459;-49
2022/04/17 03:22:54;;;;;;;27.43;15.27;;;0.20;99.90;;;;;;5019853;28;20541;-49
2022/04/17 03:25:20;;;;;;;23.73;13.57;;;0.30;99.90;;;;;;5023864;28;20887;-49
2022/04/17 03:27:47;;;;;;;7.77;6.43;;;0.30;99.90;;;;;;5021547;28;20972;-49
2022/04/17 03:30:15;;;;;;;5.13;4.63;;;0.30;99.90;;;;;;5020119;28;20553;-49
2022/04/17 03:32:43;;;;;;;4.57;4.13;;;0.10;99.90;;;;;;5023379;28;20577;-49
2022/04/17 03:35:12;;;;;;;4.10;3.77;;;0.10;99.90;;;;;;5019540;28;20550;-49
2022/04/17 03:37:38;;;;;;;4.07;3.77;;;0.00;99.90;;;;;;5018727;28;21044;-51
2022/04/17 03:40:06;;;;;;;4.60;4.17;;;0.10;99.90;;;;;;5023103;28;20558;-50
2022/04/17 03:42:34;;;;;;;4.77;4.37;;;0.00;99.90;;;;;;5023588;28;21058;-49
2022/04/17 03:45:02;;;;;;;4.87;3.90;;;0.00;99.90;;;;;;5025236;28;20463;-49
2022/04/17 03:47:29;;;;;;;3.73;3.47;;;-0.10;99.90;;;;;;5024862;28;20480;-49
2022/04/17 03:49:56;;;;;;;5.20;4.80;;;-0.20;99.90;;;;;;5016350;28;20603;-50
2022/04/17 03:52:23;;;;;;;4.53;4.13;;;-0.20;99.90;;;;;;5020617;28;21017;-50
2022/04/17 03:54:50;;;;;;;5.13;4.17;;;-0.20;99.90;;;;;;5027263;28;20572;-49
2022/04/17 03:57:17;;;;;;;11.13;3.80;;;-0.10;99.90;;;;;;5025667;28;20566;-50
2022/04/17 03:59:43;;;;;;;4.07;3.77;;;-0.20;99.90;;;;;;5020971;28;20524;-49
2022/04/17 04:02:10;;;;;;;3.87;3.50;;;-0.20;99.90;;;;;;5022289;28;20537;-50
2022/04/17 04:04:37;;;;;;;3.57;3.37;;;-0.30;99.90;;;;;;5019232;28;20483;-49
2022/04/17 04:07:03;;;;;;;3.77;3.57;;;-0.40;99.90;;;;;;5020701;28;20462;-49
2022/04/17 04:09:31;;;;;;;3.97;3.57;;;-0.40;99.90;;;;;;5018308;28;20546;-50
2022/04/17 04:11:58;;;;;;;4.27;3.47;;;-0.40;99.90;;;;;;5019877;28;20495;-50
2022/04/17 04:14:24;;;;;;;3.70;3.40;;;-0.40;99.90;;;;;;5023985;28;20532;-50
2022/04/17 04:16:51;;;;;;;4.30;3.40;;;-0.40;99.90;;;;;;5024899;28;20489;-49
2022/04/17 04:19:18;;;;;;;3.50;3.30;;;-0.40;99.90;;;;;;5025544;28;20626;-50
2022/04/17 04:21:50;;;;;;;3.33;3.13;;;-0.30;99.90;;;;;;5023701;28;20466;-49
2022/04/17 04:24:19;;;;;;;3.53;3.33;;;-0.40;99.90;;;;;;5019523;28;20539;-49
2022/04/17 04:28:32;;;;;;;3.30;3.10;;;-0.50;99.90;;;;;;5021161;28;20972;-49
2022/04/17 04:29:34;;;;;;;3.37;3.10;;;-0.60;99.90;;;;;;5022897;28;20471;-49
2022/04/17 04:32:01;;;;;;;2.30;2.20;;;-0.60;99.90;;;;;;5021922;28;20457;-50
2022/04/17 04:34:28;;;;;;;3.43;3.13;;;-0.60;99.90;;;;;;5019530;28;20255;-50
2022/04/17 04:36:54;;;;;;;4.30;2.40;;;-0.60;99.90;;;;;;5017719;28;20490;-49
2022/04/17 04:39:21;;;;;;;3.30;3.00;;;-0.50;99.90;;;;;;5015900;28;20483;-50
2022/04/17 04:41:49;;;;;;;4.30;3.40;;;-0.40;99.90;;;;;;5020679;28;20495;-50
2022/04/17 04:44:15;;;;;;;3.87;3.47;;;-0.30;99.90;;;;;;5015717;28;20577;-50
2022/04/17 04:46:41;;;;;;;4.03;3.73;;;-0.20;99.90;;;;;;5022168;28;20494;-50
2022/04/17 04:51:52;;;;;;;4.97;4.53;;;-0.10;99.90;;;;;;5019715;28;20796;-50
2022/04/17 04:54:18;;;;;;;7.80;7.00;;;-0.10;99.90;;;;;;5016870;28;20479;-49
2022/04/17 04:56:45;;;;;;;17.10;12.33;;;0.00;99.90;;;;;;5019313;28;20808;-49
2022/04/17 04:59:13;;;;;;;18.33;12.23;;;0.00;99.90;;;;;;5017176;28;20483;-50
2022/04/17 05:01:39;;;;;;;16.47;11.90;;;0.10;99.90;;;;;;5019934;28;20495;-50
2022/04/17 05:04:06;;;;;;;20.70;12.70;;;0.30;99.90;;;;;;5019789;28;20483;-49
2022/04/17 05:06:32;;;;;;;16.07;13.10;;;0.40;99.90;;;;;;5017147;28;20460;-49
2022/04/17 05:09:00;;;;;;;19.27;12.97;;;0.40;99.90;;;;;;5021055;28;20522;-49
2022/04/17 05:11:26;;;;;;;10.80;8.40;;;0.50;99.90;;;;;;5020293;28;20498;-50
2022/04/17 05:13:53;;;;;;;8.20;7.13;;;0.60;99.90;;;;;;5020273;28;20589;-50
2022/04/17 05:16:21;;;;;;;22.03;12.57;;;0.70;99.90;;;;;;5018800;28;20502;-49
2022/04/17 05:18:52;;;;;;;17.13;13.33;;;0.70;99.90;;;;;;5019187;28;20573;-50
2022/04/17 05:21:20;;;;;;;13.33;10.60;;;0.70;99.90;;;;;;5030432;28;20450;-53
2022/04/17 05:23:46;;;;;;;9.13;8.07;;;0.70;99.90;;;;;;5034695;28;20454;-51
2022/04/17 05:26:13;;;;;;;10.57;9.47;;;0.90;99.90;;;;;;5036994;28;20501;-50
2022/04/17 05:28:39;;;;;;;12.13;8.47;;;0.90;99.90;;;;;;5031964;28;20489;-51
2022/04/17 05:31:06;;;;;;;9.93;7.47;;;1.00;99.90;;;;;;5024326;28;20490;-50
2022/04/17 05:33:34;;;;;;;8.60;7.80;;;1.10;99.90;;;;;;5016816;28;20491;-50
2022/04/17 05:36:00;;;;;;;7.70;6.87;;;1.20;99.90;;;;;;5017366;28;21027;-50
2022/04/17 05:38:27;;;;;;;6.87;6.20;;;1.30;99.90;;;;;;5017886;28;20522;-50
2022/04/17 05:40:54;;;;;;;6.17;5.57;;;1.40;99.90;;;;;;5022011;28;20512;-50
2022/04/17 05:43:22;;;;;;;5.90;5.30;;;1.50;99.90;;;;;;5018414;28;20553;-50
2022/04/17 05:45:49;;;;;;;6.10;5.50;;;1.60;99.90;;;;;;5018428;28;20543;-50
2022/04/17 05:48:15;;;;;;;6.67;6.10;;;1.70;99.90;;;;;;5017329;28;20570;-50
2022/04/17 05:50:43;;;;;;;4.90;4.60;;;1.80;99.90;;;;;;5020702;28;20585;-49
2022/04/17 05:53:10;;;;;;;5.67;5.17;;;2.00;99.90;;;;;;5015953;28;20491;-51
2022/04/17 05:55:37;;;;;;;6.40;5.43;;;2.20;99.90;;;;;;5019303;28;20666;-50
2022/04/17 05:58:04;;;;;;;6.07;5.47;;;2.40;99.90;;;;;;5018165;28;20514;-49
2022/04/17 06:00:30;;;;;;;7.10;5.17;;;2.60;20.90;;;;;;5024905;28;20888;-50
2022/04/17 06:02:57;;;;;;;6.80;5.90;;;2.80;29.30;;;;;;5030322;28;20486;-50
2022/04/17 06:05:24;;;;;;;9.23;6.77;;;3.00;36.30;;;;;;5022486;28;20593;-50
2022/04/17 06:07:51;;;;;;;6.50;5.40;;;3.20;40.50;;;;;;5016843;28;20451;-50
2022/04/17 06:10:18;;;;;;;6.73;6.03;;;3.40;56.30;;;;;;5020598;28;20559;-49
2022/04/17 06:12:45;;;;;;;6.50;4.80;;;3.80;61.80;;;;;;5018909;28;20985;-50
2022/04/17 06:15:11;;;;;;;6.30;5.70;;;4.10;75.20;;;;;;5015058;28;20930;-50
2022/04/17 06:17:39;;;;;;;7.43;6.00;;;4.40;77.90;;;;;;5013634;28;20462;-49
2022/04/17 06:20:07;;;;;;;6.80;6.10;;;4.60;87.20;;;;;;5014449;28;20489;-49
2022/04/17 06:22:35;;;;;;;5.57;5.10;;;5.00;90.00;;;;;;5012225;28;20950;-50
2022/04/17 06:25:04;;;;;;;7.30;6.20;;;5.30;92.30;;;;;;5016746;28;20460;-50
2022/04/17 06:27:37;;;;;;;7.70;5.27;;;5.50;99.90;;;;;;5018019;28;20459;-50
2022/04/17 06:30:08;;;;;;;10.33;5.60;;;5.50;99.90;;;;;;5019917;28;20518;-49
2022/04/17 06:32:35;;;;;;;6.20;5.70;;;5.50;99.90;;;;;;5014634;28;20997;-50
2022/04/17 06:35:01;;;;;;;5.50;5.03;;;5.60;99.90;;;;;;5018610;28;20479;-50
2022/04/17 06:37:28;;;;;;;6.37;5.47;;;5.70;99.90;;;;;;5015030;28;20917;-50
2022/04/17 06:39:56;;;;;;;5.27;4.93;;;5.80;99.90;;;;;;5027172;28;20514;-49
2022/04/17 06:42:24;;;;;;;6.10;5.47;;;6.00;99.90;;;;;;5025530;28;20506;-50
2022/04/17 06:44:51;;;;;;;5.30;4.80;;;6.40;99.90;;;;;;5022813;28;20980;-50
2022/04/17 06:47:18;;;;;;;5.47;4.43;;;6.50;99.90;;;;;;5020188;28;20458;-50
2022/04/17 06:49:45;;;;;;;7.30;4.73;;;6.70;99.90;;;;;;5021929;28;20637;-51
2022/04/17 06:52:12;;;;;;;6.03;5.53;;;7.00;99.90;;;;;;5020291;28;20461;-50
2022/04/17 06:54:38;;;;;;;5.33;4.53;;;7.40;99.90;;;;;;5024396;28;20581;-50
2022/04/17 06:57:05;;;;;;;7.03;5.80;;;7.50;99.90;;;;;;5018441;28;20962;-50
2022/04/17 06:59:33;;;;;;;5.67;5.07;;;7.60;99.90;;;;;;5018887;28;20570;-49
2022/04/17 07:01:59;;;;;;;5.80;5.30;;;7.80;99.90;;;;;;5019009;28;20570;-50
2022/04/17 07:04:27;;;;;;;4.77;3.77;;;8.20;99.90;;;;;;5027094;28;21005;-50
2022/04/17 07:06:54;;;;;;;7.53;3.70;;;8.60;99.90;;;;;;5023021;28;20553;-50
2022/04/17 07:09:20;;;;;;;2.80;2.70;;;8.90;99.90;;;;;;5022379;28;21037;-50
2022/04/17 07:11:47;;;;;;;3.27;3.07;;;9.30;99.90;;;;;;5021486;28;21347;-50
2022/04/17 07:14:15;;;;;;;4.47;3.10;;;9.40;99.90;;;;;;5023390;28;20997;-52
2022/04/17 07:16:43;;;;;;;2.87;2.77;;;9.30;99.90;;;;;;5022457;28;20467;-50
2022/04/17 07:19:09;;;;;;;2.83;2.63;;;9.40;99.90;;;;;;5019876;28;22831;-50
2022/04/17 07:21:36;;;;;;;3.47;3.17;;;9.50;99.90;;;;;;5021130;28;20562;-49
2022/04/17 07:24:03;;;;;;;3.93;2.87;;;9.30;99.90;;;;;;5018383;28;20493;-50
2022/04/17 07:26:29;;;;;;;3.63;3.33;;;9.40;99.90;;;;;;5031459;28;20487;-50
2022/04/17 07:28:56;;;;;;;2.90;2.63;;;9.60;99.90;;;;;;5021675;28;20513;-50
2022/04/17 07:31:22;;;;;;;2.50;2.40;;;9.80;99.90;;;;;;5022216;28;20538;-50
2022/04/17 07:33:50;;;;;;;2.33;2.13;;;10.10;99.90;;;;;;5024540;28;20462;-49
2022/04/17 07:36:17;;;;;;;2.70;2.50;;;10.20;99.90;;;;;;5026322;28;20482;-50
2022/04/17 07:38:43;;;;;;;2.90;2.70;;;10.50;99.90;;;;;;5023796;28;20517;-50
2022/04/17 07:41:10;;;;;;;5.00;2.90;;;10.90;99.90;;;;;;5020729;28;20486;-50
2022/04/17 07:43:37;;;;;;;2.60;2.40;;;11.30;99.90;;;;;;5021167;28;20478;-50
2022/04/17 07:46:03;;;;;;;2.60;2.40;;;11.40;99.90;;;;;;5025435;28;20881;-50
2022/04/17 07:48:30;;;;;;;2.53;2.27;;;11.30;99.90;;;;;;5032269;28;20502;-50
2022/04/17 07:50:58;;;;;;;2.30;2.20;;;11.40;99.90;;;;;;5028662;28;20455;-50
2022/04/17 07:53:25;;;;;;;6.63;2.40;;;11.60;99.90;;;;;;5032303;28;20937;-50
2022/04/17 07:55:51;;;;;;;2.10;2.00;;;11.50;99.90;;;;;;5024335;28;20527;-50
2022/04/17 07:58:25;;;;;;;2.33;2.13;;;11.50;99.90;;;;;;5026735;28;20514;-51
2022/04/17 08:00:57;;;;;;;2.37;2.17;;;11.80;99.90;;;;;;5022030;28;20459;-50
2022/04/17 08:03:35;;;;;;;2.03;1.90;;;12.20;99.90;;;;;;5036038;28;20453;-50
2022/04/17 08:06:05;;;;;;;1.93;1.83;;;12.00;99.90;;;;;;5026500;28;20486;-50
2022/04/17 08:08:32;;;;;;;2.33;2.23;;;12.10;99.90;;;;;;5030629;28;20462;-50
2022/04/17 08:10:59;;;;;;;2.50;2.40;;;12.10;99.90;;;;;;5022617;28;20486;-50
2022/04/17 08:13:25;;;;;;;2.27;2.17;;;11.80;99.90;;;;;;5025980;28;20509;-51
2022/04/17 08:15:52;;;;;;;2.43;2.33;;;12.20;99.90;;;;;;5014931;28;21383;-52
2022/04/17 08:18:19;;;;;;;2.30;2.10;;;12.30;99.90;;;;;;5019277;28;20490;-51
2022/04/17 08:20:46;;;;;;;2.73;2.53;;;12.60;99.90;;;;;;5018688;28;20538;-52
2022/04/17 08:23:14;;;;;;;3.30;2.40;;;12.20;99.90;;;;;;5018882;28;20489;-51
2022/04/17 08:25:40;;;;;;;2.73;2.53;;;12.10;99.90;;;;;;5019287;28;21352;-51
2022/04/17 08:28:07;;;;;;;2.13;2.03;;;12.00;99.90;;;;;;5029384;28;20482;-50
2022/04/17 08:30:34;;;;;;;2.40;2.20;;;12.50;99.90;;;;;;5026831;28;21003;-50
2022/04/17 08:33:04;;;;;;;2.80;2.27;;;12.80;99.90;;;;;;5029194;28;20493;-51
2022/04/17 08:35:30;;;;;;;7.10;3.00;;;13.00;99.90;;;;;;5029220;28;20578;-51
2022/04/17 08:38:00;;;;;;;3.27;2.90;;;13.10;99.90;;;;;;5017112;28;21594;-51
2022/04/17 08:40:28;;;;;;;3.13;2.80;;;13.40;99.90;;;;;;5019833;28;20460;-51
2022/04/17 08:42:55;;;;;;;3.87;2.90;;;13.70;99.90;;;;;;5021896;28;20557;-51
2022/04/17 08:45:23;;;;;;;2.83;2.63;;;14.30;99.90;;;;;;5016670;28;20463;-51
2022/04/17 08:47:50;;;;;;;3.57;3.17;;;13.90;99.90;;;;;;5026607;28;21005;-51
2022/04/17 08:50:18;;;;;;;3.03;2.83;;;14.70;99.90;;;;;;5029103;28;20494;-52
2022/04/17 08:52:46;;;;;;;4.20;3.27;;;15.30;99.90;;;;;;5024436;28;20498;-52
2022/04/17 08:55:13;;;;;;;3.50;3.20;;;16.00;99.90;;;;;;5028452;28;20482;-51
2022/04/17 08:57:41;;;;;;;4.30;3.90;;;15.80;99.90;;;;;;5021684;28;20513;-51
2022/04/17 09:00:11;;;;;;;3.77;3.47;;;15.50;99.90;;;;;;5021650;28;20502;-51
2022/04/17 09:02:38;;;;;;;3.27;3.03;;;15.90;99.90;;;;;;5018177;28;20918;-51
2022/04/17 09:05:05;;;;;;;3.50;3.00;;;16.50;99.90;;;;;;5022828;28;20539;-52
2022/04/17 09:07:39;;;;;;;10.40;3.47;;;16.00;99.90;;;;;;5030924;28;20459;-52
2022/04/17 09:10:07;;;;;;;3.17;2.97;;;15.90;99.90;;;;;;5022819;28;20463;-51
2022/04/17 09:12:34;;;;;;;3.50;3.20;;;16.10;99.90;;;;;;5022931;28;20521;-52
2022/04/17 09:15:02;;;;;;;3.40;3.10;;;16.40;99.90;;;;;;5026415;28;20565;-52
2022/04/17 09:17:30;;;;;;;3.77;3.20;;;16.90;99.90;;;;;;5021081;28;20569;-52
2022/04/17 09:19:56;;;;;;;6.57;4.37;;;16.40;99.90;;;;;;5024205;28;20498;-52
2022/04/17 09:22:23;;;;;;;5.60;3.77;;;16.20;99.90;;;;;;5017507;28;20969;-51
2022/04/17 09:24:50;;;;;;;5.67;4.53;;;16.60;99.90;;;;;;5016220;28;21848;-54
2022/04/17 09:27:16;;;;;;;3.33;3.03;;;16.80;99.90;;;;;;5023230;28;20546;-52
2022/04/17 09:29:43;;;;;;;4.20;3.80;;;16.50;99.90;;;;;;5017162;28;21291;-52
2022/04/17 09:32:12;;;;;;;3.40;3.10;;;16.60;99.90;;;;;;5018498;28;20495;-52
2022/04/17 09:34:44;;;;;;;5.07;4.57;;;16.20;99.90;;;;;;5019087;28;20903;-51
2022/04/17 09:37:15;;;;;;;4.77;3.87;;;16.00;99.90;;;;;;5014902;28;20456;-52
2022/04/17 09:39:42;;;;;;;3.40;3.10;;;16.20;99.90;;;;;;5017585;28;20486;-51
2022/04/17 09:42:09;;;;;;;4.43;3.80;;;16.70;99.90;;;;;;5011112;28;20815;-53
2022/04/17 09:44:38;;;;;;;4.43;3.00;;;16.40;99.90;;;;;;5014392;28;20463;-53
2022/04/17 09:47:06;;;;;;;4.33;2.70;;;16.60;99.90;;;;;;5020260;28;20455;-52
2022/04/17 09:49:51;;;;;;;3.57;3.23;;;16.10;99.90;;;;;;5013271;28;22472;-52
2022/04/17 09:52:18;;;;;;;2.97;2.70;;;16.10;99.90;;;;;;5016452;28;20474;-52
2022/04/17 09:54:45;;;;;;;6.50;3.40;;;15.40;99.90;;;;;;5019534;28;20493;-52
2022/04/17 09:57:12;;;;;;;4.53;2.80;;;15.40;99.90;;;;;;5020927;28;20493;-52
2022/04/17 09:59:39;;;;;;;2.60;2.40;;;16.70;99.90;;;;;;5020039;28;21027;-52
2022/04/17 10:02:06;;;;;;;6.80;2.40;;;17.10;99.90;;;;;;5037590;22;20497;-49
2022/04/17 10:04:38;;;;;;;2.70;2.53;;;17.30;99.90;;;;;;5003384;28;20549;-52
2022/04/17 10:07:05;;;;;;;2.83;2.63;;;17.90;99.90;;;;;;4999153;28;20578;-50
2022/04/17 10:09:32;;;;;;;2.17;2.00;;;17.20;99.90;;;;;;5010063;28;20519;-50
2022/04/17 10:12:00;;;;;;;1.90;1.80;;;17.60;99.90;;;;;;5007747;28;20462;-51
2022/04/17 10:14:28;;;;;;;2.63;2.40;;;17.30;99.90;;;;;;5007110;28;20889;-53
2022/04/17 10:16:56;;;;;;;2.43;2.33;;;17.00;99.90;;;;;;5007624;28;20487;-51
2022/04/17 10:19:24;;;;;;;2.87;2.67;;;16.90;99.90;;;;;;5007412;28;20464;-51
2022/04/17 10:21:53;;;;;;;4.50;2.20;;;16.50;99.90;;;;;;5003132;28;20460;-50
2022/04/17 10:24:21;;;;;;;2.70;2.23;;;16.40;99.90;;;;;;5007173;28;21043;-51
2022/04/17 10:26:49;;;;;;;4.70;2.63;;;17.00;99.90;;;;;;5005876;28;20507;-51
2022/04/17 10:29:22;;;;;;;4.10;2.40;;;17.30;99.90;;;;;;5006443;28;20491;-51
2022/04/17 10:32:22;;;;;;;2.37;2.17;;;17.00;99.90;;;;;;5000180;28;20984;-51
2022/04/17 10:35:26;;;;;;;3.67;2.43;;;16.90;99.90;;;;;;5009793;28;20502;-50
2022/04/17 10:38:25;;;;;;;2.63;2.40;;;17.50;99.90;;;;;;4968554;28;20691;-51
2022/04/17 10:40:54;;;;;;;3.13;2.50;;;17.80;99.90;;;;;;5009040;28;21012;-51
2022/04/17 10:43:21;;;;;;;3.30;2.40;;;17.40;99.90;;;;;;5010932;28;20460;-51
2022/04/17 10:46:08;;;;;;;1.83;1.73;;;16.70;99.90;;;;;;5006141;28;20460;-51
2022/04/17 10:48:43;;;;;;;2.10;2.00;;;16.70;99.90;;;;;;5003952;28;20463;-51
2022/04/17 10:51:13;;;;;;;3.10;2.90;;;17.30;99.90;;;;;;5006651;28;20455;-51
2022/04/17 10:53:51;;;;;;;2.23;2.10;;;17.40;99.90;;;;;;5011152;28;20467;-51
2022/04/17 10:56:19;;;;;;;2.33;2.23;;;17.40;99.90;;;;;;5010735;28;20533;-51
2022/04/17 10:58:52;;;;;;;2.70;2.50;;;17.20;99.90;;;;;;5007023;28;20495;-52
2022/04/17 11:01:53;;;;;;;2.87;2.30;;;18.50;99.90;;;;;;5004795;28;20547;-51
2022/04/17 11:04:22;;;;;;;1.80;1.70;;;18.80;99.90;;;;;;5007901;28;20522;-50
2022/04/17 11:07:10;;;;;;;2.60;1.50;;;18.50;99.90;;;;;;5011224;28;20455;-51
2022/04/17 11:09:41;;;;;;;1.77;1.53;;;17.10;99.90;;;;;;5006821;28;20464;-50
2022/04/17 11:12:20;;;;;;;2.57;1.83;;;17.20;99.90;;;;;;5008135;28;20464;-51
2022/04/17 11:14:53;;;;;;;2.00;1.53;;;17.20;99.90;;;;;;5008517;28;20471;-51
2022/04/17 11:17:21;;;;;;;1.90;1.70;;;16.60;99.90;;;;;;5004246;28;20571;-50
2022/04/17 11:19:49;;;;;;;3.30;2.13;;;17.10;99.90;;;;;;5008618;28;20468;-51
2022/04/17 11:22:17;;;;;;;2.20;2.10;;;17.80;99.90;;;;;;5004988;28;20762;-52
2022/04/17 11:25:07;;;;;;;3.50;2.20;;;17.70;99.90;;;;;;5011462;28;20463;-52
2022/04/17 11:27:41;;;;;;;3.30;1.90;;;17.90;99.90;;;;;;5008631;28;20482;-52
2022/04/17 11:30:29;;;;;;;1.50;1.40;;;17.90;99.90;;;;;;5001765;28;20567;-51
2022/04/17 11:32:56;;;;;;;3.00;2.10;;;17.70;99.90;;;;;;5011662;28;20510;-52
2022/04/17 11:35:24;;;;;;;2.03;1.83;;;18.10;99.90;;;;;;5012787;28;20542;-52
2022/04/17 11:37:53;;;;;;;1.97;1.87;;;17.90;99.90;;;;;;5002404;28;20598;-52
2022/04/17 11:40:23;;;;;;;3.87;1.70;;;17.80;99.90;;;;;;5012363;28;20463;-51
2022/04/17 11:42:51;;;;;;;2.90;2.17;;;18.30;99.90;;;;;;5010264;28;20484;-52
2022/04/17 11:45:20;;;;;;;1.67;1.50;;;17.70;99.90;;;;;;5009898;28;20469;-52
2022/04/17 11:47:47;;;;;;;2.87;2.20;;;17.00;99.90;;;;;;5011797;28;20461;-52
2022/04/17 11:50:21;;;;;;;2.20;1.87;;;17.40;99.90;;;;;;5009651;28;20550;-52
2022/04/17 11:52:51;;;;;;;2.70;1.70;;;17.80;99.90;;;;;;5011510;28;20511;-50
2022/04/17 11:55:22;;;;;;;1.90;1.80;;;17.60;99.90;;;;;;5012488;28;20474;-51
2022/04/17 11:57:50;;;;;;;2.23;2.03;;;17.00;99.90;;;;;;5012269;28;21055;-51
2022/04/17 12:00:17;;;;;;;2.20;1.63;;;17.40;99.90;;;;;;5010413;28;20463;-51
2022/04/17 12:02:43;;;;;;;2.50;2.07;;;19.00;99.90;;;;;;5009568;28;21028;-52
2022/04/17 12:05:12;;;;;;;1.83;1.63;;;19.20;99.90;;;;;;5011703;28;20483;-50
2022/04/17 12:07:39;;;;;;;2.07;1.87;;;19.20;99.90;;;;;;5008577;28;20801;-52
2022/04/17 12:10:07;;;;;;;2.00;1.90;;;17.80;99.90;;;;;;5009409;28;20561;-51
2022/04/17 12:12:35;;;;;;;2.03;1.93;;;18.00;99.90;;;;;;5009815;28;20515;-51
2022/04/17 12:15:05;;;;;;;1.60;1.50;;;18.70;99.90;;;;;;5012395;28;20495;-51
2022/04/17 12:17:32;;;;;;;2.40;2.27;;;18.40;99.90;;;;;;5009522;28;20525;-50
2022/04/17 12:19:59;;;;;;;2.00;1.80;;;18.10;99.90;;;;;;5010601;28;20543;-51
2022/04/17 12:22:26;;;;;;;2.47;1.70;;;18.40;99.90;;;;;;5010038;28;20503;-52
2022/04/17 12:24:52;;;;;;;4.50;2.20;;;18.30;99.90;;;;;;5009701;28;20495;-51
2022/04/17 12:27:20;;;;;;;1.67;1.60;;;18.20;99.90;;;;;;5004340;28;20550;-51
2022/04/17 12:29:47;;;;;;;2.07;1.87;;;17.90;99.90;;;;;;5012594;28;20573;-51
2022/04/17 12:32:15;;;;;;;3.57;3.23;;;18.10;99.90;;;;;;5003669;28;20540;-51
2022/04/17 12:34:45;;;;;;;5.30;2.10;;;17.60;99.90;;;;;;5012398;28;20447;-52
2022/04/17 12:37:22;;;;;;;1.90;1.80;;;17.60;99.90;;;;;;5008999;28;20534;-50
2022/04/17 12:39:48;;;;;;;2.33;2.13;;;17.80;99.90;;;;;;5012876;28;20809;-52
2022/04/17 12:42:16;;;;;;;1.90;1.80;;;17.60;99.90;;;;;;5007412;28;20488;-51
2022/04/17 12:44:44;;;;;;;2.00;1.90;;;17.20;99.90;;;;;;5007620;28;20463;-52
2022/04/17 12:47:11;;;;;;;1.90;1.80;;;17.10;99.90;;;;;;5011533;28;20831;-51
2022/04/17 12:49:39;;;;;;;1.90;1.77;;;17.30;99.90;;;;;;5010200;28;20466;-51
2022/04/17 12:52:07;;;;;;;2.20;2.10;;;17.90;99.90;;;;;;5011083;28;20491;-50
2022/04/17 12:54:35;;;;;;;2.20;2.03;;;18.00;99.90;;;;;;5011093;28;20484;-51
2022/04/17 12:57:02;;;;;;;3.73;2.20;;;18.50;99.90;;;;;;5000000;28;20647;-51
2022/04/17 12:59:40;;;;;;;1.80;1.67;;;18.40;99.90;;;;;;4999631;28;20470;-51
2022/04/17 13:02:13;;;;;;;2.03;1.93;;;18.40;99.90;;;;;;5002546;28;20463;-51
2022/04/17 13:04:46;;;;;;;3.87;1.90;;;18.80;99.90;;;;;;5008190;28;20969;-51
2022/04/17 13:07:13;;;;;;;1.70;1.60;;;19.20;99.90;;;;;;5010395;28;20460;-52